createdAt,value
2022-09-02T00:00:18.502Z,6.63
2022-09-02T00:02:51.133Z,4.20
2022-09-02T00:05:23.577Z,4.18
2022-09-02T00:07:53.616Z,3.88
2022-09-02T00:10:23.599Z,5.15
2022-09-02T00:12:53.555Z,5.72
2022-09-02T00:15:24.298Z,5.03
2022-09-02T00:17:57.142Z,4.15
2022-09-02T00:20:30.965Z,4.75
2022-09-02T00:23:01.067Z,4.88
2022-09-02T00:25:31.054Z,7.10
2022-09-02T00:28:01.346Z,5.22
2022-09-02T00:30:31.339Z,4.43
2022-09-02T00:33:01.299Z,4.70
2022-09-02T00:35:31.478Z,2.53
2022-09-02T00:38:01.477Z,4.25
2022-09-02T00:40:31.692Z,3.40
2022-09-02T00:43:01.867Z,4.20
2022-09-02T00:45:32.474Z,5.68
2022-09-02T00:48:02.541Z,3.55
2022-09-02T00:50:33.083Z,4.63
2022-09-02T00:53:12.819Z,4.90
2022-09-02T00:55:47.286Z,4.88
2022-09-02T00:58:22.107Z,4.30
2022-09-02T01:00:53.658Z,4.00
2022-09-02T01:03:24.197Z,4.28
2022-09-02T01:05:55.297Z,4.30
2022-09-02T01:08:30.081Z,4.70
2022-09-02T01:11:00.482Z,4.50
2022-09-02T01:13:32.010Z,3.78
2022-09-02T01:16:06.630Z,2.35
2022-09-02T01:18:37.845Z,2.03
2022-09-02T01:21:08.230Z,3.22
2022-09-02T01:23:38.274Z,2.55
2022-09-02T01:26:09.045Z,2.75
2022-09-02T01:28:39.016Z,2.70
2022-09-02T01:31:09.089Z,2.38
2022-09-02T01:33:39.311Z,2.55
2022-09-02T01:36:09.957Z,2.17
2022-09-02T01:38:40.259Z,2.20
2022-09-02T01:41:10.318Z,2.15
2022-09-02T01:43:40.621Z,1.92
2022-09-02T01:46:11.328Z,2.40
2022-09-02T01:48:41.960Z,2.67
2022-09-02T01:51:11.979Z,1.98
2022-09-02T01:53:42.262Z,2.92
2022-09-02T01:56:12.405Z,2.10
2022-09-02T01:58:42.401Z,6.03
2022-09-02T02:01:13.525Z,12.13
2022-09-02T02:03:45.179Z,13.52
2022-09-02T02:06:16.105Z,12.70
2022-09-02T02:08:46.827Z,11.02
2022-09-02T02:11:23.849Z,10.38
2022-09-02T02:13:59.026Z,20.58
2022-09-02T02:16:29.462Z,15.55
2022-09-02T02:18:59.593Z,14.98
2022-09-02T02:21:29.617Z,14.05
2022-09-02T02:24:02.378Z,14.13
2022-09-02T02:26:32.881Z,5.15
2022-09-02T02:29:03.270Z,5.15
2022-09-02T02:31:34.772Z,2.88
2022-09-02T02:34:05.381Z,3.97
2022-09-02T02:36:36.533Z,4.82
2022-09-02T02:39:07.801Z,15.45
2022-09-02T02:41:38.355Z,17.60
2022-09-02T02:44:08.439Z,18.90
2022-09-02T02:46:40.244Z,15.02
2022-09-02T02:49:10.602Z,12.32
2022-09-02T02:51:41.243Z,10.35
2022-09-02T02:54:12.371Z,9.18
2022-09-02T02:56:43.395Z,7.68
2022-09-02T02:59:13.558Z,10.60
2022-09-02T03:01:44.163Z,10.07
2022-09-02T03:04:14.262Z,8.00
2022-09-02T03:06:44.687Z,9.80
2022-09-02T03:09:15.840Z,13.82
2022-09-02T03:11:45.903Z,18.30
2022-09-02T03:14:16.083Z,11.27
2022-09-02T03:16:50.233Z,14.00
2022-09-02T03:19:20.670Z,14.55
2022-09-02T03:21:50.731Z,11.68
2022-09-02T03:24:24.314Z,11.20
2022-09-02T03:26:54.390Z,6.47
2022-09-02T03:29:30.519Z,6.70
2022-09-02T03:32:02.958Z,6.20
2022-09-02T03:34:34.057Z,4.57
2022-09-02T03:37:04.472Z,4.35
2022-09-02T03:39:34.449Z,1.63
2022-09-02T03:42:05.758Z,1.20
2022-09-02T03:44:36.349Z,2.00
2022-09-02T03:47:06.416Z,5.55
2022-09-02T03:49:37.022Z,2.85
2022-09-02T03:52:07.651Z,3.08
2022-09-02T03:54:38.232Z,5.22
2022-09-02T03:57:08.522Z,4.20
2022-09-02T03:59:39.663Z,3.83
2022-09-02T04:02:10.064Z,3.47
2022-09-02T04:04:40.076Z,4.65
2022-09-02T04:07:10.349Z,3.45
2022-09-02T04:09:46.579Z,4.18
2022-09-02T04:14:46.742Z,3.85
2022-09-02T04:17:22.271Z,4.63
2022-09-02T04:19:52.831Z,6.85
2022-09-02T04:22:25.215Z,5.35
2022-09-02T04:24:55.659Z,4.65
2022-09-02T04:27:26.265Z,4.18
2022-09-02T04:29:58.209Z,4.28
2022-09-02T04:32:29.011Z,2.75
2022-09-02T04:34:59.792Z,3.72
2022-09-02T04:37:30.336Z,1.10
2022-09-02T04:40:00.470Z,2.00
2022-09-02T04:42:30.514Z,3.20
2022-09-02T04:45:00.648Z,4.93
2022-09-02T04:47:31.152Z,1.80
2022-09-02T04:50:01.268Z,1.50
2022-09-02T04:52:34.023Z,1.00
2022-09-02T04:55:04.152Z,1.30
2022-09-02T04:57:35.042Z,2.42
2022-09-02T05:00:08.024Z,3.17
2022-09-02T05:02:40.987Z,2.53
2022-09-02T05:05:12.353Z,3.78
2022-09-02T05:07:42.583Z,1.75
2022-09-02T05:10:16.248Z,4.03
2022-09-02T05:12:47.054Z,1.70
2022-09-02T05:15:17.736Z,4.38
2022-09-02T05:17:48.006Z,6.45
2022-09-02T05:20:19.534Z,1.23
2022-09-02T05:22:51.191Z,1.90
2022-09-02T05:25:21.406Z,1.67
2022-09-02T05:27:52.464Z,1.60
2022-09-02T05:30:22.833Z,1.48
2022-09-02T05:32:58.208Z,0.77
2022-09-02T05:35:29.494Z,3.33
2022-09-02T05:38:01.086Z,2.30
2022-09-02T05:40:32.594Z,2.17
2022-09-02T05:43:02.652Z,2.25
2022-09-02T05:45:32.765Z,2.50
2022-09-02T05:48:23.317Z,2.95
2022-09-02T05:50:57.520Z,2.88
2022-09-02T05:53:30.790Z,3.63
2022-09-02T05:56:02.155Z,3.55
2022-09-02T05:58:33.460Z,3.88
2022-09-02T06:01:09.689Z,4.28
2022-09-02T06:03:40.322Z,3.92
2022-09-02T06:06:12.876Z,2.83
2022-09-02T06:08:44.687Z,3.05
2022-09-02T06:11:15.301Z,3.08
2022-09-02T06:13:46.802Z,2.05
2022-09-02T06:16:18.047Z,2.40
2022-09-02T06:18:50.993Z,3.13
2022-09-02T06:21:22.154Z,5.38
2022-09-02T06:23:54.931Z,6.45
2022-09-02T06:26:25.586Z,2.00
2022-09-02T06:28:56.235Z,1.60
2022-09-02T06:31:26.415Z,1.60
2022-09-02T06:33:57.618Z,1.48
2022-09-02T06:36:31.808Z,1.98
2022-09-02T06:39:04.103Z,1.70
2022-09-02T06:41:36.238Z,2.08
2022-09-02T06:44:09.932Z,1.75
2022-09-02T06:46:44.266Z,2.40
2022-09-02T06:49:17.445Z,2.72
2022-09-02T06:51:51.055Z,2.35
2022-09-02T06:54:22.353Z,2.30
2022-09-02T06:56:57.231Z,3.17
2022-09-02T06:59:29.421Z,2.33
2022-09-02T07:02:01.290Z,2.60
2022-09-02T07:04:51.238Z,2.72
2022-09-02T07:07:25.042Z,2.47
2022-09-02T07:10:00.453Z,3.10
2022-09-02T07:12:30.810Z,3.40
2022-09-02T07:15:08.313Z,4.53
2022-09-02T07:17:41.735Z,4.07
2022-09-02T07:20:15.970Z,3.78
2022-09-02T07:23:03.445Z,5.10
2022-09-02T07:25:35.809Z,4.47
2022-09-02T07:28:06.782Z,8.50
2022-09-02T07:30:40.515Z,5.35
2022-09-02T07:33:15.635Z,4.60
2022-09-02T07:38:20.321Z,2.10
2022-09-02T07:40:57.093Z,1.95
2022-09-02T07:43:32.530Z,1.70
2022-09-02T07:46:02.652Z,2.03
2022-09-02T07:48:32.770Z,1.83
2022-09-02T07:51:03.367Z,3.25
2022-09-02T07:53:35.121Z,1.90
2022-09-02T07:56:05.519Z,1.20
2022-09-02T07:58:35.634Z,2.17
2022-09-02T08:01:06.652Z,1.50
2022-09-02T08:03:37.565Z,1.10
2022-09-02T08:06:10.402Z,1.17
2022-09-02T08:08:40.627Z,1.90
2022-09-02T08:11:10.783Z,1.10
2022-09-02T08:13:41.441Z,1.20
2022-09-02T08:16:11.575Z,1.30
2022-09-02T08:18:41.662Z,0.90
2022-09-02T08:21:11.605Z,1.30
2022-09-02T08:23:42.427Z,1.00
2022-09-02T08:26:12.716Z,1.02
2022-09-02T08:28:42.700Z,1.30
2022-09-02T08:31:12.641Z,1.35
2022-09-02T08:33:43.120Z,5.10
2022-09-02T08:36:16.095Z,4.25
2022-09-02T08:38:46.174Z,2.85
2022-09-02T08:41:16.377Z,1.50
2022-09-02T08:43:46.709Z,2.20
2022-09-02T08:46:19.188Z,2.08
2022-09-02T08:48:58.134Z,1.75
2022-09-02T08:51:37.446Z,1.65
2022-09-02T08:54:12.923Z,2.30
2022-09-02T08:56:43.510Z,1.50
2022-09-02T08:59:16.300Z,1.95
2022-09-02T09:01:46.445Z,2.45
2022-09-02T09:04:19.837Z,1.95
2022-09-02T09:06:58.123Z,1.70
2022-09-02T09:09:35.312Z,1.70
2022-09-02T09:12:25.711Z,1.02
2022-09-02T09:14:59.331Z,1.40
2022-09-02T09:17:55.381Z,1.17
2022-09-02T09:20:27.297Z,1.30
2022-09-02T09:23:01.064Z,1.70
2022-09-02T09:25:31.366Z,1.33
2022-09-02T09:28:01.779Z,2.15
2022-09-02T09:30:32.129Z,2.53
2022-09-02T09:33:03.906Z,5.38
2022-09-02T09:35:51.953Z,1.77
2022-09-02T09:38:34.550Z,2.60
2022-09-02T09:41:30.379Z,4.45
2022-09-02T09:46:32.219Z,1.90
2022-09-02T09:49:02.330Z,1.58
2022-09-02T09:51:43.193Z,2.03
2022-09-02T09:54:21.299Z,2.58
2022-09-02T09:56:51.573Z,3.72
2022-09-02T09:59:42.519Z,1.13
2022-09-02T10:02:36.336Z,2.63
2022-09-02T10:05:15.036Z,3.55
2022-09-02T10:07:46.365Z,2.15
2022-09-02T10:10:20.931Z,2.67
2022-09-02T10:12:52.218Z,2.40
2022-09-02T10:15:38.151Z,2.25
2022-09-02T10:18:15.799Z,1.10
2022-09-02T10:21:14.054Z,2.72
2022-09-02T10:23:44.727Z,2.30
2022-09-02T10:29:15.789Z,2.95
2022-09-02T10:31:53.343Z,1.77
2022-09-02T10:34:35.476Z,2.15
2022-09-02T10:37:06.841Z,1.88
2022-09-02T10:39:52.173Z,2.00
2022-09-02T10:42:31.390Z,4.57
2022-09-02T10:45:07.485Z,2.33
2022-09-02T10:47:37.460Z,2.58
2022-09-02T10:50:23.478Z,2.33
2022-09-02T10:53:01.982Z,1.50
2022-09-02T10:55:44.778Z,1.75
2022-09-02T10:58:21.779Z,1.27
2022-09-02T11:00:53.044Z,1.88
2022-09-02T11:03:26.803Z,1.70
2022-09-02T11:05:57.938Z,1.50
2022-09-02T11:08:33.992Z,1.92
2022-09-02T11:11:07.478Z,2.63
2022-09-02T11:14:03.829Z,1.67
2022-09-02T11:16:54.342Z,1.60
2022-09-02T11:19:39.780Z,1.00
2022-09-02T11:22:24.149Z,0.90
2022-09-02T11:27:44.453Z,1.02
2022-09-02T11:30:15.733Z,1.67
2022-09-02T11:32:47.330Z,2.10
2022-09-02T11:35:19.509Z,2.53
2022-09-02T11:37:53.583Z,3.05
2022-09-02T11:40:36.194Z,1.80
2022-09-02T11:43:18.976Z,1.55
2022-09-02T11:46:06.029Z,2.80
2022-09-02T11:48:55.356Z,1.88
2022-09-02T11:51:43.423Z,3.25
2022-09-02T11:54:15.559Z,1.58
2022-09-02T11:56:50.054Z,2.50
2022-09-02T11:59:46.078Z,1.75
2022-09-02T12:02:17.510Z,3.20
2022-09-02T12:04:59.816Z,2.17
2022-09-02T12:07:33.792Z,2.05
2022-09-02T12:10:04.525Z,1.73
2022-09-02T12:12:40.745Z,2.10
2022-09-02T12:15:18.177Z,2.60
2022-09-02T12:17:49.998Z,2.53
2022-09-02T12:20:39.597Z,2.65
2022-09-02T12:23:10.284Z,2.38
2022-09-02T12:25:44.593Z,1.88
2022-09-02T12:28:18.939Z,1.75
2022-09-02T12:31:02.815Z,1.77
2022-09-02T12:33:33.951Z,1.52
2022-09-02T12:36:06.268Z,2.15
2022-09-02T12:38:38.772Z,1.08
2022-09-02T12:41:14.290Z,3.30
2022-09-02T12:43:49.183Z,1.60
2022-09-02T12:46:19.259Z,1.95
2022-09-02T12:48:54.155Z,2.28
2022-09-02T12:51:42.563Z,2.15
2022-09-02T12:54:12.732Z,3.40
2022-09-02T12:56:42.709Z,2.97
2022-09-02T12:59:12.654Z,2.92
2022-09-02T13:02:14.701Z,4.65
2022-09-02T13:05:03.013Z,5.07
2022-09-02T13:07:33.149Z,3.25
2022-09-02T13:10:11.841Z,2.58
2022-09-02T13:12:44.563Z,3.35
2022-09-02T13:15:34.765Z,3.10
2022-09-02T13:18:23.756Z,2.53
2022-09-02T13:21:00.431Z,2.25
2022-09-02T13:23:36.371Z,2.22
2022-09-02T13:26:22.833Z,1.52
2022-09-02T13:29:21.830Z,2.20
2022-09-02T13:32:06.234Z,2.85
2022-09-02T13:34:36.179Z,2.35
2022-09-02T13:37:06.136Z,2.42
2022-09-02T13:39:36.172Z,2.58
2022-09-02T13:42:24.875Z,2.70
2022-09-02T13:45:11.111Z,2.95
2022-09-02T13:47:43.632Z,2.40
2022-09-02T13:50:14.646Z,3.28
2022-09-02T13:53:44.977Z,1.88
2022-09-02T13:55:34.857Z,2.47
2022-09-02T13:58:06.122Z,2.35
2022-09-02T14:00:37.713Z,2.42
2022-09-02T14:03:13.027Z,1.90
2022-09-02T14:05:47.426Z,2.20
2022-09-02T14:08:31.160Z,2.60
2022-09-02T14:11:07.832Z,2.10
2022-09-02T14:13:39.033Z,2.75
2022-09-02T14:16:30.762Z,2.50
2022-09-02T14:19:06.900Z,2.08
2022-09-02T14:21:37.516Z,1.52
2022-09-02T14:24:07.727Z,2.88
2022-09-02T14:26:38.797Z,2.42
2022-09-02T14:29:09.057Z,2.47
2022-09-02T14:31:39.093Z,2.15
2022-09-02T14:34:29.189Z,2.63
2022-09-02T14:36:59.160Z,2.80
2022-09-02T14:39:29.159Z,2.42
2022-09-02T14:41:59.147Z,2.33
2022-09-02T14:44:35.822Z,3.20
2022-09-02T14:47:06.643Z,2.38
2022-09-02T14:49:40.471Z,2.25
2022-09-02T14:52:18.715Z,2.20
2022-09-02T14:54:50.537Z,2.35
2022-09-02T14:57:23.731Z,1.90
2022-09-02T14:59:55.024Z,2.75
2022-09-02T15:02:33.625Z,2.00
2022-09-02T15:05:05.140Z,2.40
2022-09-02T15:07:35.585Z,1.92
2022-09-02T15:10:06.702Z,2.33
2022-09-02T15:12:37.114Z,3.95
2022-09-02T15:15:13.669Z,2.15
2022-09-02T15:17:46.408Z,2.20
2022-09-02T15:20:16.763Z,2.42
2022-09-02T15:22:47.121Z,3.28
2022-09-02T15:25:17.214Z,2.83
2022-09-02T15:27:47.623Z,3.15
2022-09-02T15:30:17.930Z,2.20
2022-09-02T15:32:48.135Z,3.47
2022-09-02T15:35:20.873Z,2.92
2022-09-02T15:37:53.941Z,2.75
2022-09-02T15:40:24.084Z,3.47
2022-09-02T15:42:54.323Z,3.08
2022-09-02T15:45:29.351Z,3.63
2022-09-02T15:48:00.693Z,2.70
2022-09-02T15:50:35.245Z,2.65
2022-09-02T15:53:05.213Z,2.88
2022-09-02T15:55:35.617Z,2.10
2022-09-02T15:58:05.574Z,2.67
2022-09-02T16:00:36.073Z,2.28
2022-09-02T16:03:07.466Z,2.17
2022-09-02T16:05:38.315Z,2.92
2022-09-02T16:08:09.306Z,2.45
2022-09-02T16:10:39.654Z,2.17
2022-09-02T16:13:09.877Z,2.22
2022-09-02T16:15:39.988Z,2.92
2022-09-02T16:18:10.091Z,1.80
2022-09-02T16:20:40.458Z,1.70
2022-09-02T16:23:10.648Z,1.63
2022-09-02T16:25:41.102Z,2.03
2022-09-02T16:28:11.422Z,1.88
2022-09-02T16:30:46.585Z,1.85
2022-09-02T16:33:16.947Z,1.85
2022-09-02T16:35:48.018Z,2.78
2022-09-02T16:38:18.319Z,6.80
2022-09-02T16:40:55.208Z,5.60
2022-09-02T16:45:55.346Z,3.88
2022-09-02T16:48:25.944Z,4.35
2022-09-02T16:50:55.976Z,3.83
2022-09-02T16:53:26.698Z,4.43
2022-09-02T16:55:56.968Z,4.20
2022-09-02T16:58:27.251Z,4.70
2022-09-02T17:00:57.292Z,4.50
2022-09-02T17:03:27.527Z,5.55
2022-09-02T17:05:57.651Z,3.40
2022-09-02T17:08:27.751Z,4.00
2022-09-02T17:11:21.491Z,3.35
2022-09-02T17:13:58.125Z,3.00
2022-09-02T17:16:29.178Z,2.92
2022-09-02T17:18:59.374Z,2.53
2022-09-02T17:21:33.101Z,2.80
2022-09-02T17:24:03.293Z,3.05
2022-09-02T17:26:34.849Z,2.42
2022-09-02T17:29:14.085Z,3.22
2022-09-02T17:31:56.309Z,2.88
2022-09-02T17:34:27.170Z,3.80
2022-09-02T17:36:57.245Z,2.90
2022-09-02T17:39:30.345Z,3.08
2022-09-02T17:42:00.437Z,4.38
2022-09-02T17:44:38.829Z,2.72
2022-09-02T17:47:09.789Z,2.47
2022-09-02T17:49:43.387Z,2.83
2022-09-02T17:52:14.428Z,2.28
2022-09-02T17:54:44.465Z,2.00
2022-09-02T17:57:29.595Z,2.38
2022-09-02T18:00:16.123Z,1.98
2022-09-02T18:03:19.098Z,1.95
2022-09-02T18:06:11.705Z,2.90
2022-09-02T18:08:54.214Z,2.17
2022-09-02T18:11:27.225Z,1.75
2022-09-02T18:14:15.767Z,2.05
2022-09-02T18:16:54.995Z,2.42
2022-09-02T18:19:45.102Z,2.60
2022-09-02T18:22:16.734Z,2.05
2022-09-02T18:25:06.227Z,2.92
2022-09-02T18:27:42.165Z,3.03
2022-09-02T18:30:17.314Z,3.05
2022-09-02T18:33:10.944Z,4.75
2022-09-02T18:35:50.403Z,4.07
2022-09-02T18:38:29.733Z,4.10
2022-09-02T18:41:15.097Z,2.97
2022-09-02T18:44:03.941Z,2.90
2022-09-02T18:46:35.381Z,2.50
2022-09-02T18:49:05.473Z,2.92
2022-09-02T18:51:40.197Z,3.00
2022-09-02T18:54:28.823Z,4.18
2022-09-02T18:57:03.166Z,6.45
2022-09-02T18:59:35.378Z,3.17
2022-09-02T19:02:07.637Z,4.38
2022-09-02T19:04:38.414Z,3.30
2022-09-02T19:07:26.809Z,2.55
2022-09-02T19:09:57.402Z,3.30
2022-09-02T19:12:29.156Z,2.35
2022-09-02T19:14:59.838Z,2.58
2022-09-02T19:17:29.920Z,2.40
2022-09-02T19:20:00.482Z,2.67
2022-09-02T19:22:30.464Z,2.53
2022-09-02T19:25:02.709Z,2.63
2022-09-02T19:27:40.065Z,2.28
2022-09-02T19:30:12.472Z,2.38
2022-09-02T19:32:45.030Z,2.95
2022-09-02T19:35:17.911Z,2.33
2022-09-02T19:37:51.393Z,2.03
2022-09-02T19:40:25.245Z,3.30
2022-09-02T19:42:55.865Z,2.75
2022-09-02T19:45:32.032Z,3.30
2022-09-02T19:48:07.174Z,2.92
2022-09-02T19:50:46.546Z,3.85
2022-09-02T19:53:21.266Z,2.75
2022-09-02T19:55:53.569Z,2.58
2022-09-02T19:58:24.575Z,3.08
2022-09-02T20:00:58.204Z,2.55
2022-09-02T20:03:29.294Z,2.30
2022-09-02T20:05:59.476Z,2.53
2022-09-02T20:08:32.466Z,2.40
2022-09-02T20:11:03.740Z,2.78
2022-09-02T20:13:41.399Z,2.20
2022-09-02T20:16:17.792Z,2.67
2022-09-02T20:18:50.002Z,2.10
2022-09-02T20:21:28.696Z,2.72
2022-09-02T20:24:06.373Z,3.47
2022-09-02T20:26:50.910Z,3.15
2022-09-02T20:29:36.228Z,3.33
2022-09-02T20:32:17.795Z,3.33
2022-09-02T20:34:47.863Z,3.70
2022-09-02T20:37:20.784Z,4.20
2022-09-02T20:40:09.855Z,3.72
2022-09-02T20:42:39.911Z,2.50
2022-09-02T20:45:18.444Z,3.28
2022-09-02T20:48:06.663Z,2.53
2022-09-02T20:50:42.346Z,2.80
2022-09-02T20:53:30.706Z,2.65
2022-09-02T20:56:03.782Z,3.25
2022-09-02T20:58:37.741Z,2.42
2022-09-02T21:01:09.076Z,2.80
2022-09-02T21:03:42.257Z,3.00
2022-09-02T21:06:12.939Z,2.70
2022-09-02T21:08:47.861Z,2.95
2022-09-02T21:11:18.738Z,2.80
2022-09-02T21:13:48.793Z,2.63
2022-09-02T21:16:20.202Z,3.40
2022-09-02T21:19:10.681Z,3.33
2022-09-02T21:21:42.910Z,2.97
2022-09-02T21:24:13.663Z,3.33
2022-09-02T21:26:49.173Z,3.58
2022-09-02T21:29:24.331Z,3.55
2022-09-02T21:32:14.464Z,3.08
2022-09-02T21:34:58.479Z,3.20
2022-09-02T21:37:30.744Z,3.80
2022-09-02T21:40:06.531Z,3.75
2022-09-02T21:42:39.434Z,3.85
2022-09-02T21:45:20.449Z,3.30
2022-09-02T21:48:00.391Z,4.35
2022-09-02T21:50:30.322Z,3.60
2022-09-02T21:53:08.548Z,3.45
2022-09-02T21:55:39.265Z,3.85
2022-09-02T21:58:15.180Z,4.13
2022-09-02T22:00:54.307Z,2.80
2022-09-02T22:03:47.746Z,3.75
2022-09-02T22:06:33.391Z,4.40
2022-09-02T22:09:13.624Z,4.90
2022-09-02T22:12:13.021Z,3.28
2022-09-02T22:14:49.317Z,3.22
2022-09-02T22:17:23.850Z,2.60
2022-09-02T22:19:59.026Z,2.60
2022-09-02T22:22:30.158Z,4.00
2022-09-02T22:25:00.239Z,2.97
2022-09-02T22:27:49.825Z,2.85
2022-09-02T22:30:20.034Z,2.65
2022-09-02T22:32:50.925Z,2.88
2022-09-02T22:35:32.595Z,3.20
2022-09-02T22:38:30.359Z,2.65
2022-09-02T22:41:00.524Z,2.55
2022-09-02T22:43:32.330Z,2.95
2022-09-02T22:46:48.094Z,3.20
2022-09-02T22:49:40.189Z,3.15
2022-09-02T22:52:31.066Z,6.00
2022-09-02T22:55:01.922Z,3.97
2022-09-02T22:57:42.342Z,3.53
2022-09-02T23:00:13.133Z,4.18
2022-09-02T23:02:52.548Z,2.72
2022-09-02T23:05:49.038Z,2.70
2022-09-02T23:08:21.770Z,3.47
2022-09-02T23:11:00.797Z,3.55
2022-09-02T23:13:30.731Z,3.45
2022-09-02T23:16:08.263Z,3.47
2022-09-02T23:18:43.300Z,2.83
2022-09-02T23:21:19.065Z,3.13
2022-09-02T23:23:49.044Z,3.28
2022-09-02T23:26:22.855Z,3.85
2022-09-02T23:29:01.864Z,4.15
2022-09-02T23:31:41.411Z,3.88
2022-09-02T23:34:16.094Z,5.07
2022-09-02T23:36:51.972Z,5.50
2022-09-02T23:39:26.231Z,4.45
2022-09-02T23:42:02.365Z,4.72
2022-09-02T23:44:32.427Z,3.90
2022-09-02T23:47:14.585Z,5.45
2022-09-02T23:49:57.960Z,5.45
2022-09-02T23:52:31.125Z,5.53
2022-09-02T23:55:04.986Z,5.55
2022-09-02T23:58:07.036Z,5.38
